sensor_id;sensor_type;location;lat;lon;timestamp;P1;durP1;ratioP1;P2;durP2;ratioP2
51824;SDS011;37879;52.986;6.282;2023-11-22T00:00:19;7.68;;;4.85;;
51824;SDS011;37879;52.986;6.282;2023-11-22T00:02:46;8.20;;;5.57;;
51824;SDS011;37879;52.986;6.282;2023-11-22T00:05:12;9.20;;;5.32;;
51824;SDS011;37879;52.986;6.282;2023-11-22T00:07:38;8.85;;;5.30;;
51824;SDS011;37879;52.986;6.282;2023-11-22T00:10:04;7.43;;;5.03;;
51824;SDS011;37879;52.986;6.282;2023-11-22T00:12:31;8.85;;;5.63;;
51824;SDS011;37879;52.986;6.282;2023-11-22T00:15:02;7.20;;;4.97;;
51824;SDS011;37879;52.986;6.282;2023-11-22T00:17:30;8.43;;;5.50;;
51824;SDS011;37879;52.986;6.282;2023-11-22T00:19:56;10.43;;;5.57;;
51824;SDS011;37879;52.986;6.282;2023-11-22T00:22:22;8.27;;;5.70;;
51824;SDS011;37879;52.986;6.282;2023-11-22T00:24:48;12.23;;;6.28;;
51824;SDS011;37879;52.986;6.282;2023-11-22T00:27:15;9.00;;;5.55;;
51824;SDS011;37879;52.986;6.282;2023-11-22T00:29:41;9.52;;;6.07;;
51824;SDS011;37879;52.986;6.282;2023-11-22T00:32:07;9.65;;;5.43;;
51824;SDS011;37879;52.986;6.282;2023-11-22T00:34:32;11.73;;;6.50;;
51824;SDS011;37879;52.986;6.282;2023-11-22T00:36:58;16.27;;;6.63;;
51824;SDS011;37879;52.986;6.282;2023-11-22T00:39:24;9.98;;;6.18;;
51824;SDS011;37879;52.986;6.282;2023-11-22T00:41:50;13.52;;;7.45;;
51824;SDS011;37879;52.986;6.282;2023-11-22T00:44:15;11.43;;;6.00;;
51824;SDS011;37879;52.986;6.282;2023-11-22T00:46:41;10.80;;;5.88;;
51824;SDS011;37879;52.986;6.282;2023-11-22T00:49:07;9.88;;;6.63;;
51824;SDS011;37879;52.986;6.282;2023-11-22T00:51:35;10.57;;;6.13;;
51824;SDS011;37879;52.986;6.282;2023-11-22T00:54:01;11.90;;;6.53;;
51824;SDS011;37879;52.986;6.282;2023-11-22T00:56:27;8.43;;;5.00;;
51824;SDS011;37879;52.986;6.282;2023-11-22T00:58:53;11.75;;;5.90;;
51824;SDS011;37879;52.986;6.282;2023-11-22T01:01:20;11.25;;;6.45;;
51824;SDS011;37879;52.986;6.282;2023-11-22T01:03:46;10.65;;;6.47;;
51824;SDS011;37879;52.986;6.282;2023-11-22T01:06:12;13.05;;;6.50;;
51824;SDS011;37879;52.986;6.282;2023-11-22T01:08:38;10.20;;;6.78;;
51824;SDS011;37879;52.986;6.282;2023-11-22T01:11:03;11.10;;;6.07;;
51824;SDS011;37879;52.986;6.282;2023-11-22T01:13:30;10.90;;;6.18;;
51824;SDS011;37879;52.986;6.282;2023-11-22T01:15:57;10.20;;;6.75;;
51824;SDS011;37879;52.986;6.282;2023-11-22T01:18:23;9.48;;;6.03;;
51824;SDS011;37879;52.986;6.282;2023-11-22T01:20:49;10.02;;;6.32;;
51824;SDS011;37879;52.986;6.282;2023-11-22T01:23:14;10.77;;;6.28;;
51824;SDS011;37879;52.986;6.282;2023-11-22T01:25:40;9.85;;;5.95;;
51824;SDS011;37879;52.986;6.282;2023-11-22T01:28:06;9.18;;;5.82;;
51824;SDS011;37879;52.986;6.282;2023-11-22T01:30:36;10.00;;;5.88;;
51824;SDS011;37879;52.986;6.282;2023-11-22T01:33:03;12.13;;;6.82;;
51824;SDS011;37879;52.986;6.282;2023-11-22T01:35:29;9.15;;;5.40;;
51824;SDS011;37879;52.986;6.282;2023-11-22T01:37:55;10.65;;;5.55;;
51824;SDS011;37879;52.986;6.282;2023-11-22T01:40:23;12.88;;;6.22;;
51824;SDS011;37879;52.986;6.282;2023-11-22T01:42:48;15.95;;;6.85;;
51824;SDS011;37879;52.986;6.282;2023-11-22T01:45:14;10.85;;;5.30;;
51824;SDS011;37879;52.986;6.282;2023-11-22T01:47:40;9.98;;;5.88;;
51824;SDS011;37879;52.986;6.282;2023-11-22T01:50:06;12.02;;;6.65;;
51824;SDS011;37879;52.986;6.282;2023-11-22T01:52:33;12.57;;;6.47;;
51824;SDS011;37879;52.986;6.282;2023-11-22T01:54:59;11.68;;;6.65;;
51824;SDS011;37879;52.986;6.282;2023-11-22T01:57:30;11.32;;;6.35;;
51824;SDS011;37879;52.986;6.282;2023-11-22T01:59:59;10.73;;;6.15;;
51824;SDS011;37879;52.986;6.282;2023-11-22T02:02:31;12.93;;;5.75;;
51824;SDS011;37879;52.986;6.282;2023-11-22T02:04:58;12.32;;;6.55;;
51824;SDS011;37879;52.986;6.282;2023-11-22T02:07:26;10.10;;;5.93;;
51824;SDS011;37879;52.986;6.282;2023-11-22T02:09:52;9.57;;;6.05;;
51824;SDS011;37879;52.986;6.282;2023-11-22T02:12:18;11.88;;;5.85;;
51824;SDS011;37879;52.986;6.282;2023-11-22T02:14:45;9.75;;;6.05;;
51824;SDS011;37879;52.986;6.282;2023-11-22T02:17:11;10.15;;;5.65;;
51824;SDS011;37879;52.986;6.282;2023-11-22T02:19:37;9.55;;;5.70;;
51824;SDS011;37879;52.986;6.282;2023-11-22T02:22:03;10.82;;;5.57;;
51824;SDS011;37879;52.986;6.282;2023-11-22T02:24:29;11.70;;;6.47;;
51824;SDS011;37879;52.986;6.282;2023-11-22T02:26:54;12.82;;;7.13;;
51824;SDS011;37879;52.986;6.282;2023-11-22T02:29:20;10.02;;;5.35;;
51824;SDS011;37879;52.986;6.282;2023-11-22T02:31:46;10.73;;;6.63;;
51824;SDS011;37879;52.986;6.282;2023-11-22T02:34:12;15.20;;;6.65;;
51824;SDS011;37879;52.986;6.282;2023-11-22T02:36:41;8.77;;;5.45;;
51824;SDS011;37879;52.986;6.282;2023-11-22T02:39:10;12.05;;;6.25;;
51824;SDS011;37879;52.986;6.282;2023-11-22T02:41:36;10.55;;;5.53;;
51824;SDS011;37879;52.986;6.282;2023-11-22T02:44:02;8.32;;;4.95;;
51824;SDS011;37879;52.986;6.282;2023-11-22T02:46:27;10.70;;;5.68;;
51824;SDS011;37879;52.986;6.282;2023-11-22T02:48:56;9.95;;;5.28;;
51824;SDS011;37879;52.986;6.282;2023-11-22T02:51:21;10.70;;;5.40;;
51824;SDS011;37879;52.986;6.282;2023-11-22T02:53:47;10.10;;;5.25;;
51824;SDS011;37879;52.986;6.282;2023-11-22T02:56:14;12.85;;;6.65;;
51824;SDS011;37879;52.986;6.282;2023-11-22T02:58:41;11.40;;;5.95;;
51824;SDS011;37879;52.986;6.282;2023-11-22T03:01:06;12.10;;;6.35;;
51824;SDS011;37879;52.986;6.282;2023-11-22T03:03:33;10.57;;;5.03;;
51824;SDS011;37879;52.986;6.282;2023-11-22T03:05:59;10.40;;;5.68;;
51824;SDS011;37879;52.986;6.282;2023-11-22T03:08:25;13.30;;;5.63;;
51824;SDS011;37879;52.986;6.282;2023-11-22T03:10:51;10.52;;;5.55;;
51824;SDS011;37879;52.986;6.282;2023-11-22T03:13:17;9.65;;;5.47;;
51824;SDS011;37879;52.986;6.282;2023-11-22T03:15:43;9.25;;;5.32;;
51824;SDS011;37879;52.986;6.282;2023-11-22T03:18:09;10.38;;;5.68;;
51824;SDS011;37879;52.986;6.282;2023-11-22T03:20:36;9.88;;;5.28;;
51824;SDS011;37879;52.986;6.282;2023-11-22T03:23:03;15.65;;;6.07;;
51824;SDS011;37879;52.986;6.282;2023-11-22T03:25:29;15.63;;;6.53;;
51824;SDS011;37879;52.986;6.282;2023-11-22T03:27:55;11.93;;;5.63;;
51824;SDS011;37879;52.986;6.282;2023-11-22T03:30:21;9.68;;;5.10;;
51824;SDS011;37879;52.986;6.282;2023-11-22T03:32:47;11.45;;;6.07;;
51824;SDS011;37879;52.986;6.282;2023-11-22T03:35:14;10.38;;;5.57;;
51824;SDS011;37879;52.986;6.282;2023-11-22T03:37:41;11.43;;;5.97;;
51824;SDS011;37879;52.986;6.282;2023-11-22T03:40:07;11.43;;;5.47;;
51824;SDS011;37879;52.986;6.282;2023-11-22T03:42:35;10.25;;;5.55;;
51824;SDS011;37879;52.986;6.282;2023-11-22T03:45:02;8.80;;;4.88;;
51824;SDS011;37879;52.986;6.282;2023-11-22T03:47:28;11.63;;;7.07;;
51824;SDS011;37879;52.986;6.282;2023-11-22T03:49:54;12.10;;;7.00;;
51824;SDS011;37879;52.986;6.282;2023-11-22T03:52:20;11.75;;;6.18;;
51824;SDS011;37879;52.986;6.282;2023-11-22T03:54:45;10.60;;;6.60;;
51824;SDS011;37879;52.986;6.282;2023-11-22T03:57:11;13.25;;;6.40;;
51824;SDS011;37879;52.986;6.282;2023-11-22T03:59:37;10.48;;;6.03;;
51824;SDS011;37879;52.986;6.282;2023-11-22T04:02:02;11.38;;;6.03;;
51824;SDS011;37879;52.986;6.282;2023-11-22T04:04:29;10.57;;;5.70;;
51824;SDS011;37879;52.986;6.282;2023-11-22T04:06:55;13.60;;;6.63;;
51824;SDS011;37879;52.986;6.282;2023-11-22T04:09:21;12.27;;;6.75;;
51824;SDS011;37879;52.986;6.282;2023-11-22T04:11:47;10.23;;;5.82;;
51824;SDS011;37879;52.986;6.282;2023-11-22T04:14:13;12.23;;;6.68;;
51824;SDS011;37879;52.986;6.282;2023-11-22T04:16:39;12.38;;;6.47;;
51824;SDS011;37879;52.986;6.282;2023-11-22T04:19:04;11.48;;;6.47;;
51824;SDS011;37879;52.986;6.282;2023-11-22T04:21:30;11.23;;;6.60;;
51824;SDS011;37879;52.986;6.282;2023-11-22T04:23:56;10.48;;;6.05;;
51824;SDS011;37879;52.986;6.282;2023-11-22T04:26:21;9.85;;;6.05;;
51824;SDS011;37879;52.986;6.282;2023-11-22T04:28:49;12.23;;;6.63;;
51824;SDS011;37879;52.986;6.282;2023-11-22T04:31:15;9.63;;;5.38;;
51824;SDS011;37879;52.986;6.282;2023-11-22T04:33:41;13.23;;;6.30;;
51824;SDS011;37879;52.986;6.282;2023-11-22T04:36:07;10.88;;;5.95;;
51824;SDS011;37879;52.986;6.282;2023-11-22T04:38:33;11.57;;;6.03;;
51824;SDS011;37879;52.986;6.282;2023-11-22T04:40:59;11.93;;;6.35;;
51824;SDS011;37879;52.986;6.282;2023-11-22T04:43:25;14.45;;;6.35;;
51824;SDS011;37879;52.986;6.282;2023-11-22T04:45:51;13.43;;;6.53;;
51824;SDS011;37879;52.986;6.282;2023-11-22T04:48:16;13.35;;;6.57;;
51824;SDS011;37879;52.986;6.282;2023-11-22T04:50:42;11.07;;;6.20;;
51824;SDS011;37879;52.986;6.282;2023-11-22T04:53:10;10.90;;;6.60;;
51824;SDS011;37879;52.986;6.282;2023-11-22T04:55:36;9.93;;;6.07;;
51824;SDS011;37879;52.986;6.282;2023-11-22T04:58:02;12.75;;;6.57;;
51824;SDS011;37879;52.986;6.282;2023-11-22T05:00:28;9.40;;;5.05;;
51824;SDS011;37879;52.986;6.282;2023-11-22T05:02:54;12.02;;;5.72;;
51824;SDS011;37879;52.986;6.282;2023-11-22T05:05:19;11.88;;;5.28;;
51824;SDS011;37879;52.986;6.282;2023-11-22T05:07:46;10.93;;;5.78;;
51824;SDS011;37879;52.986;6.282;2023-11-22T05:10:12;11.70;;;6.45;;
51824;SDS011;37879;52.986;6.282;2023-11-22T05:12:39;12.13;;;6.55;;
51824;SDS011;37879;52.986;6.282;2023-11-22T05:15:05;12.93;;;6.32;;
51824;SDS011;37879;52.986;6.282;2023-11-22T05:17:32;13.65;;;7.05;;
51824;SDS011;37879;52.986;6.282;2023-11-22T05:19:58;13.57;;;6.88;;
51824;SDS011;37879;52.986;6.282;2023-11-22T05:22:24;11.85;;;6.70;;
51824;SDS011;37879;52.986;6.282;2023-11-22T05:24:50;11.93;;;7.05;;
51824;SDS011;37879;52.986;6.282;2023-11-22T05:27:15;10.30;;;5.63;;
51824;SDS011;37879;52.986;6.282;2023-11-22T05:29:41;14.07;;;7.50;;
51824;SDS011;37879;52.986;6.282;2023-11-22T05:32:07;13.10;;;6.70;;
51824;SDS011;37879;52.986;6.282;2023-11-22T05:34:33;14.60;;;7.28;;
51824;SDS011;37879;52.986;6.282;2023-11-22T05:36:59;11.25;;;6.43;;
51824;SDS011;37879;52.986;6.282;2023-11-22T05:39:24;13.13;;;6.72;;
51824;SDS011;37879;52.986;6.282;2023-11-22T05:41:50;9.88;;;5.70;;
51824;SDS011;37879;52.986;6.282;2023-11-22T05:44:17;11.98;;;5.85;;
51824;SDS011;37879;52.986;6.282;2023-11-22T05:46:42;14.38;;;8.02;;
51824;SDS011;37879;52.986;6.282;2023-11-22T05:49:08;14.52;;;7.35;;
51824;SDS011;37879;52.986;6.282;2023-11-22T05:51:35;13.13;;;6.63;;
51824;SDS011;37879;52.986;6.282;2023-11-22T05:54:02;12.93;;;7.03;;
51824;SDS011;37879;52.986;6.282;2023-11-22T05:56:28;14.55;;;7.50;;
51824;SDS011;37879;52.986;6.282;2023-11-22T05:58:54;14.50;;;7.63;;
51824;SDS011;37879;52.986;6.282;2023-11-22T06:01:19;14.80;;;8.13;;
51824;SDS011;37879;52.986;6.282;2023-11-22T06:03:45;13.63;;;7.50;;
51824;SDS011;37879;52.986;6.282;2023-11-22T06:06:11;14.20;;;7.50;;
51824;SDS011;37879;52.986;6.282;2023-11-22T06:08:38;79.65;;;12.35;;
51824;SDS011;37879;52.986;6.282;2023-11-22T06:11:04;15.20;;;6.95;;
51824;SDS011;37879;52.986;6.282;2023-11-22T06:13:30;12.38;;;6.72;;
51824;SDS011;37879;52.986;6.282;2023-11-22T06:15:56;10.05;;;5.75;;
51824;SDS011;37879;52.986;6.282;2023-11-22T06:18:22;12.10;;;6.40;;
51824;SDS011;37879;52.986;6.282;2023-11-22T06:20:54;12.63;;;6.45;;
51824;SDS011;37879;52.986;6.282;2023-11-22T06:23:23;12.27;;;7.18;;
51824;SDS011;37879;52.986;6.282;2023-11-22T06:25:49;16.23;;;8.82;;
51824;SDS011;37879;52.986;6.282;2023-11-22T06:28:14;14.07;;;7.57;;
51824;SDS011;37879;52.986;6.282;2023-11-22T06:30:40;12.95;;;7.60;;
51824;SDS011;37879;52.986;6.282;2023-11-22T06:33:07;14.32;;;7.57;;
51824;SDS011;37879;52.986;6.282;2023-11-22T06:35:33;14.55;;;6.70;;
51824;SDS011;37879;52.986;6.282;2023-11-22T06:37:58;20.60;;;9.80;;
51824;SDS011;37879;52.986;6.282;2023-11-22T06:40:24;13.70;;;6.85;;
51824;SDS011;37879;52.986;6.282;2023-11-22T06:42:50;12.68;;;7.18;;
51824;SDS011;37879;52.986;6.282;2023-11-22T06:45:16;12.48;;;6.20;;
51824;SDS011;37879;52.986;6.282;2023-11-22T06:47:42;15.15;;;7.15;;
51824;SDS011;37879;52.986;6.282;2023-11-22T06:50:08;15.38;;;8.30;;
51824;SDS011;37879;52.986;6.282;2023-11-22T06:52:38;15.63;;;8.23;;
51824;SDS011;37879;52.986;6.282;2023-11-22T06:55:05;15.07;;;7.93;;
51824;SDS011;37879;52.986;6.282;2023-11-22T06:57:35;19.48;;;7.50;;
51824;SDS011;37879;52.986;6.282;2023-11-22T07:00:01;13.95;;;8.10;;
51824;SDS011;37879;52.986;6.282;2023-11-22T07:02:33;15.57;;;8.15;;
51824;SDS011;37879;52.986;6.282;2023-11-22T07:05:00;15.30;;;7.70;;
51824;SDS011;37879;52.986;6.282;2023-11-22T07:07:26;15.30;;;7.60;;
51824;SDS011;37879;52.986;6.282;2023-11-22T07:09:52;14.40;;;7.28;;
51824;SDS011;37879;52.986;6.282;2023-11-22T07:12:18;15.13;;;8.23;;
51824;SDS011;37879;52.986;6.282;2023-11-22T07:14:47;13.80;;;6.85;;
51824;SDS011;37879;52.986;6.282;2023-11-22T07:17:14;16.63;;;7.47;;
51824;SDS011;37879;52.986;6.282;2023-11-22T07:19:40;16.48;;;8.48;;
51824;SDS011;37879;52.986;6.282;2023-11-22T07:22:12;14.07;;;8.35;;
51824;SDS011;37879;52.986;6.282;2023-11-22T07:24:43;15.23;;;7.97;;
51824;SDS011;37879;52.986;6.282;2023-11-22T07:27:15;15.73;;;8.07;;
51824;SDS011;37879;52.986;6.282;2023-11-22T07:29:44;16.88;;;8.48;;
51824;SDS011;37879;52.986;6.282;2023-11-22T07:32:11;19.88;;;8.75;;
51824;SDS011;37879;52.986;6.282;2023-11-22T07:34:37;19.70;;;8.15;;
51824;SDS011;37879;52.986;6.282;2023-11-22T07:37:05;16.20;;;8.88;;
51824;SDS011;37879;52.986;6.282;2023-11-22T07:39:34;16.15;;;8.80;;
51824;SDS011;37879;52.986;6.282;2023-11-22T07:42:04;18.95;;;8.38;;
51824;SDS011;37879;52.986;6.282;2023-11-22T07:44:33;16.63;;;8.70;;
51824;SDS011;37879;52.986;6.282;2023-11-22T07:47:00;17.15;;;9.57;;
51824;SDS011;37879;52.986;6.282;2023-11-22T07:49:27;19.65;;;9.77;;
51824;SDS011;37879;52.986;6.282;2023-11-22T07:51:54;17.10;;;8.98;;
51824;SDS011;37879;52.986;6.282;2023-11-22T07:54:21;15.18;;;8.52;;
51824;SDS011;37879;52.986;6.282;2023-11-22T07:56:50;16.55;;;9.18;;
51824;SDS011;37879;52.986;6.282;2023-11-22T07:59:19;16.40;;;8.20;;
51824;SDS011;37879;52.986;6.282;2023-11-22T08:01:45;15.48;;;8.52;;
51824;SDS011;37879;52.986;6.282;2023-11-22T08:04:14;14.55;;;7.63;;
51824;SDS011;37879;52.986;6.282;2023-11-22T08:06:41;17.70;;;8.80;;
51824;SDS011;37879;52.986;6.282;2023-11-22T08:09:07;13.98;;;7.85;;
51824;SDS011;37879;52.986;6.282;2023-11-22T08:11:34;14.50;;;8.02;;
51824;SDS011;37879;52.986;6.282;2023-11-22T08:14:00;16.02;;;8.63;;
51824;SDS011;37879;52.986;6.282;2023-11-22T08:16:27;16.38;;;8.43;;
51824;SDS011;37879;52.986;6.282;2023-11-22T08:18:53;18.45;;;8.40;;
51824;SDS011;37879;52.986;6.282;2023-11-22T08:21:19;15.07;;;7.55;;
51824;SDS011;37879;52.986;6.282;2023-11-22T08:23:47;18.35;;;8.95;;
51824;SDS011;37879;52.986;6.282;2023-11-22T08:26:13;15.13;;;8.32;;
51824;SDS011;37879;52.986;6.282;2023-11-22T08:28:39;17.58;;;9.18;;
51824;SDS011;37879;52.986;6.282;2023-11-22T08:31:05;18.33;;;9.80;;
51824;SDS011;37879;52.986;6.282;2023-11-22T08:33:34;13.88;;;8.43;;
51824;SDS011;37879;52.986;6.282;2023-11-22T08:36:01;14.05;;;8.40;;
51824;SDS011;37879;52.986;6.282;2023-11-22T08:38:29;17.52;;;9.02;;
51824;SDS011;37879;52.986;6.282;2023-11-22T08:40:56;19.60;;;8.77;;
51824;SDS011;37879;52.986;6.282;2023-11-22T08:43:21;16.27;;;9.45;;
51824;SDS011;37879;52.986;6.282;2023-11-22T08:45:51;17.25;;;9.15;;
51824;SDS011;37879;52.986;6.282;2023-11-22T08:48:17;18.88;;;10.25;;
51824;SDS011;37879;52.986;6.282;2023-11-22T08:50:42;19.05;;;9.38;;
51824;SDS011;37879;52.986;6.282;2023-11-22T08:53:09;18.77;;;9.52;;
51824;SDS011;37879;52.986;6.282;2023-11-22T08:55:35;15.27;;;9.15;;
51824;SDS011;37879;52.986;6.282;2023-11-22T08:58:01;15.15;;;8.32;;
51824;SDS011;37879;52.986;6.282;2023-11-22T09:00:27;18.48;;;10.43;;
51824;SDS011;37879;52.986;6.282;2023-11-22T09:02:57;15.20;;;8.65;;
51824;SDS011;37879;52.986;6.282;2023-11-22T09:05:23;17.02;;;9.40;;
51824;SDS011;37879;52.986;6.282;2023-11-22T09:07:49;19.25;;;9.30;;
51824;SDS011;37879;52.986;6.282;2023-11-22T09:10:16;15.60;;;8.88;;
51824;SDS011;37879;52.986;6.282;2023-11-22T09:12:43;13.48;;;8.25;;
51824;SDS011;37879;52.986;6.282;2023-11-22T09:15:10;16.05;;;8.48;;
51824;SDS011;37879;52.986;6.282;2023-11-22T09:17:38;18.70;;;10.27;;
51824;SDS011;37879;52.986;6.282;2023-11-22T09:20:11;15.63;;;8.55;;
51824;SDS011;37879;52.986;6.282;2023-11-22T09:22:47;17.17;;;9.18;;
51824;SDS011;37879;52.986;6.282;2023-11-22T09:25:18;14.55;;;8.82;;
51824;SDS011;37879;52.986;6.282;2023-11-22T09:27:45;14.88;;;7.88;;
51824;SDS011;37879;52.986;6.282;2023-11-22T09:30:36;15.32;;;8.23;;
51824;SDS011;37879;52.986;6.282;2023-11-22T09:33:11;14.60;;;9.27;;
51824;SDS011;37879;52.986;6.282;2023-11-22T09:35:39;14.13;;;8.07;;
51824;SDS011;37879;52.986;6.282;2023-11-22T09:38:07;15.55;;;8.27;;
51824;SDS011;37879;52.986;6.282;2023-11-22T09:40:43;14.57;;;7.75;;
51824;SDS011;37879;52.986;6.282;2023-11-22T09:43:13;14.68;;;8.82;;
51824;SDS011;37879;52.986;6.282;2023-11-22T09:45:42;14.65;;;7.60;;
51824;SDS011;37879;52.986;6.282;2023-11-22T09:53:14;16.85;;;8.85;;
51824;SDS011;37879;52.986;6.282;2023-11-22T09:55:47;15.85;;;8.60;;
51824;SDS011;37879;52.986;6.282;2023-11-22T09:58:13;17.98;;;8.52;;
51824;SDS011;37879;52.986;6.282;2023-11-22T10:00:42;15.63;;;9.02;;
51824;SDS011;37879;52.986;6.282;2023-11-22T10:03:11;16.52;;;9.00;;
51824;SDS011;37879;52.986;6.282;2023-11-22T10:05:42;13.93;;;8.75;;
51824;SDS011;37879;52.986;6.282;2023-11-22T10:08:08;14.38;;;8.02;;
51824;SDS011;37879;52.986;6.282;2023-11-22T10:10:34;17.40;;;10.60;;
51824;SDS011;37879;52.986;6.282;2023-11-22T10:13:02;14.38;;;8.50;;
51824;SDS011;37879;52.986;6.282;2023-11-22T10:15:28;14.15;;;8.13;;
51824;SDS011;37879;52.986;6.282;2023-11-22T10:17:55;16.23;;;9.43;;
51824;SDS011;37879;52.986;6.282;2023-11-22T10:20:35;14.20;;;7.65;;
51824;SDS011;37879;52.986;6.282;2023-11-22T10:23:03;13.60;;;7.97;;
51824;SDS011;37879;52.986;6.282;2023-11-22T10:25:33;15.68;;;8.20;;
51824;SDS011;37879;52.986;6.282;2023-11-22T10:28:01;11.85;;;7.53;;
51824;SDS011;37879;52.986;6.282;2023-11-22T10:30:27;10.98;;;7.35;;
51824;SDS011;37879;52.986;6.282;2023-11-22T10:32:53;13.50;;;8.07;;
51824;SDS011;37879;52.986;6.282;2023-11-22T10:35:20;11.68;;;7.10;;
51824;SDS011;37879;52.986;6.282;2023-11-22T10:37:47;11.65;;;7.35;;
51824;SDS011;37879;52.986;6.282;2023-11-22T10:40:13;14.38;;;8.63;;
51824;SDS011;37879;52.986;6.282;2023-11-22T10:42:41;14.32;;;8.07;;
51824;SDS011;37879;52.986;6.282;2023-11-22T10:45:08;14.40;;;8.77;;
51824;SDS011;37879;52.986;6.282;2023-11-22T10:47:38;13.73;;;6.97;;
51824;SDS011;37879;52.986;6.282;2023-11-22T10:50:06;14.05;;;8.07;;
51824;SDS011;37879;52.986;6.282;2023-11-22T10:52:33;14.07;;;8.23;;
51824;SDS011;37879;52.986;6.282;2023-11-22T10:55:03;16.88;;;8.25;;
51824;SDS011;37879;52.986;6.282;2023-11-22T10:57:31;13.02;;;7.63;;
51824;SDS011;37879;52.986;6.282;2023-11-22T11:00:03;15.45;;;7.40;;
51824;SDS011;37879;52.986;6.282;2023-11-22T11:02:35;13.32;;;7.65;;
51824;SDS011;37879;52.986;6.282;2023-11-22T11:05:13;11.80;;;7.90;;
51824;SDS011;37879;52.986;6.282;2023-11-22T11:07:44;12.20;;;6.90;;
51824;SDS011;37879;52.986;6.282;2023-11-22T11:10:18;10.77;;;6.72;;
51824;SDS011;37879;52.986;6.282;2023-11-22T11:12:46;12.57;;;6.78;;
51824;SDS011;37879;52.986;6.282;2023-11-22T11:15:12;8.98;;;6.20;;
51824;SDS011;37879;52.986;6.282;2023-11-22T11:17:39;10.65;;;6.60;;
51824;SDS011;37879;52.986;6.282;2023-11-22T11:20:06;9.52;;;5.55;;
51824;SDS011;37879;52.986;6.282;2023-11-22T11:22:32;12.38;;;7.00;;
51824;SDS011;37879;52.986;6.282;2023-11-22T11:25:04;11.50;;;7.45;;
51824;SDS011;37879;52.986;6.282;2023-11-22T11:27:33;11.05;;;5.95;;
51824;SDS011;37879;52.986;6.282;2023-11-22T11:32:57;9.75;;;5.85;;
51824;SDS011;37879;52.986;6.282;2023-11-22T11:35:42;10.70;;;5.78;;
51824;SDS011;37879;52.986;6.282;2023-11-22T11:38:11;10.85;;;6.35;;
51824;SDS011;37879;52.986;6.282;2023-11-22T11:40:39;10.50;;;7.00;;
51824;SDS011;37879;52.986;6.282;2023-11-22T11:43:06;9.73;;;6.50;;
51824;SDS011;37879;52.986;6.282;2023-11-22T11:45:50;9.52;;;5.85;;
51824;SDS011;37879;52.986;6.282;2023-11-22T11:48:19;11.63;;;6.03;;
51824;SDS011;37879;52.986;6.282;2023-11-22T11:50:45;8.30;;;5.18;;
51824;SDS011;37879;52.986;6.282;2023-11-22T11:53:11;10.32;;;6.30;;
51824;SDS011;37879;52.986;6.282;2023-11-22T11:55:37;9.43;;;5.75;;
51824;SDS011;37879;52.986;6.282;2023-11-22T11:58:06;10.40;;;6.57;;
51824;SDS011;37879;52.986;6.282;2023-11-22T12:00:34;10.57;;;6.63;;
51824;SDS011;37879;52.986;6.282;2023-11-22T12:03:05;11.77;;;6.45;;
51824;SDS011;37879;52.986;6.282;2023-11-22T12:05:38;10.13;;;6.65;;
51824;SDS011;37879;52.986;6.282;2023-11-22T12:08:04;11.65;;;7.20;;
51824;SDS011;37879;52.986;6.282;2023-11-22T12:10:30;8.27;;;5.40;;
51824;SDS011;37879;52.986;6.282;2023-11-22T12:12:56;12.20;;;7.28;;
51824;SDS011;37879;52.986;6.282;2023-11-22T12:15:23;10.98;;;5.90;;
51824;SDS011;37879;52.986;6.282;2023-11-22T12:17:50;10.60;;;6.43;;
51824;SDS011;37879;52.986;6.282;2023-11-22T12:20:17;8.68;;;5.38;;
51824;SDS011;37879;52.986;6.282;2023-11-22T12:22:46;10.68;;;6.55;;
51824;SDS011;37879;52.986;6.282;2023-11-22T12:25:12;10.20;;;6.28;;
51824;SDS011;37879;52.986;6.282;2023-11-22T12:27:39;12.95;;;6.50;;
51824;SDS011;37879;52.986;6.282;2023-11-22T12:30:06;11.20;;;6.65;;
51824;SDS011;37879;52.986;6.282;2023-11-22T12:32:34;10.55;;;5.68;;
51824;SDS011;37879;52.986;6.282;2023-11-22T12:35:04;11.13;;;6.80;;
51824;SDS011;37879;52.986;6.282;2023-11-22T12:37:32;10.75;;;5.97;;
51824;SDS011;37879;52.986;6.282;2023-11-22T12:39:58;11.20;;;6.07;;
51824;SDS011;37879;52.986;6.282;2023-11-22T12:42:25;10.05;;;5.97;;
51824;SDS011;37879;52.986;6.282;2023-11-22T12:44:53;11.85;;;5.82;;
51824;SDS011;37879;52.986;6.282;2023-11-22T12:47:31;9.98;;;5.32;;
51824;SDS011;37879;52.986;6.282;2023-11-22T12:50:01;8.55;;;5.68;;
51824;SDS011;37879;52.986;6.282;2023-11-22T12:52:29;9.15;;;5.78;;
51824;SDS011;37879;52.986;6.282;2023-11-22T12:54:57;10.35;;;6.15;;
51824;SDS011;37879;52.986;6.282;2023-11-22T12:57:24;10.50;;;6.20;;
51824;SDS011;37879;52.986;6.282;2023-11-22T12:59:50;10.90;;;5.70;;
51824;SDS011;37879;52.986;6.282;2023-11-22T13:02:16;9.20;;;6.25;;
51824;SDS011;37879;52.986;6.282;2023-11-22T13:04:42;9.82;;;6.18;;
51824;SDS011;37879;52.986;6.282;2023-11-22T13:07:10;8.30;;;5.72;;
51824;SDS011;37879;52.986;6.282;2023-11-22T13:09:36;8.88;;;5.60;;
51824;SDS011;37879;52.986;6.282;2023-11-22T13:12:03;8.70;;;5.90;;
51824;SDS011;37879;52.986;6.282;2023-11-22T13:14:29;11.98;;;6.18;;
51824;SDS011;37879;52.986;6.282;2023-11-22T13:17:00;9.00;;;5.85;;
51824;SDS011;37879;52.986;6.282;2023-11-22T13:19:26;10.13;;;6.03;;
51824;SDS011;37879;52.986;6.282;2023-11-22T13:21:52;11.23;;;6.07;;
51824;SDS011;37879;52.986;6.282;2023-11-22T13:24:18;10.82;;;6.35;;
51824;SDS011;37879;52.986;6.282;2023-11-22T13:26:45;10.10;;;5.90;;
51824;SDS011;37879;52.986;6.282;2023-11-22T13:29:11;8.60;;;5.45;;
51824;SDS011;37879;52.986;6.282;2023-11-22T13:31:37;9.20;;;5.82;;
51824;SDS011;37879;52.986;6.282;2023-11-22T13:34:02;9.07;;;6.00;;
51824;SDS011;37879;52.986;6.282;2023-11-22T13:36:28;10.77;;;6.22;;
51824;SDS011;37879;52.986;6.282;2023-11-22T13:38:54;10.57;;;5.75;;
51824;SDS011;37879;52.986;6.282;2023-11-22T13:41:20;11.65;;;6.45;;
51824;SDS011;37879;52.986;6.282;2023-11-22T13:43:46;11.75;;;7.32;;
51824;SDS011;37879;52.986;6.282;2023-11-22T13:46:13;10.55;;;6.68;;
51824;SDS011;37879;52.986;6.282;2023-11-22T13:48:40;12.48;;;6.30;;
51824;SDS011;37879;52.986;6.282;2023-11-22T13:51:06;10.30;;;6.20;;
51824;SDS011;37879;52.986;6.282;2023-11-22T13:53:35;10.63;;;6.75;;
51824;SDS011;37879;52.986;6.282;2023-11-22T13:56:04;10.13;;;6.00;;
51824;SDS011;37879;52.986;6.282;2023-11-22T13:58:34;11.13;;;6.78;;
51824;SDS011;37879;52.986;6.282;2023-11-22T14:01:00;10.73;;;6.45;;
51824;SDS011;37879;52.986;6.282;2023-11-22T14:03:26;11.32;;;7.18;;
51824;SDS011;37879;52.986;6.282;2023-11-22T14:05:51;11.88;;;6.60;;
51824;SDS011;37879;52.986;6.282;2023-11-22T14:08:17;10.65;;;6.85;;
51824;SDS011;37879;52.986;6.282;2023-11-22T14:10:44;11.60;;;6.38;;
51824;SDS011;37879;52.986;6.282;2023-11-22T14:13:10;9.95;;;6.03;;
51824;SDS011;37879;52.986;6.282;2023-11-22T14:15:37;10.52;;;6.65;;
51824;SDS011;37879;52.986;6.282;2023-11-22T14:18:03;11.73;;;6.93;;
51824;SDS011;37879;52.986;6.282;2023-11-22T14:20:30;13.13;;;6.68;;
51824;SDS011;37879;52.986;6.282;2023-11-22T14:22:55;12.38;;;6.53;;
51824;SDS011;37879;52.986;6.282;2023-11-22T14:25:21;11.00;;;5.90;;
51824;SDS011;37879;52.986;6.282;2023-11-22T14:27:47;12.48;;;7.32;;
51824;SDS011;37879;52.986;6.282;2023-11-22T14:30:17;12.15;;;7.05;;
51824;SDS011;37879;52.986;6.282;2023-11-22T14:32:46;10.75;;;6.68;;
51824;SDS011;37879;52.986;6.282;2023-11-22T14:35:11;11.02;;;7.22;;
51824;SDS011;37879;52.986;6.282;2023-11-22T14:37:37;11.18;;;6.80;;
51824;SDS011;37879;52.986;6.282;2023-11-22T14:40:08;10.75;;;6.88;;
51824;SDS011;37879;52.986;6.282;2023-11-22T14:42:44;12.25;;;7.60;;